sensor_id;sensor_type;location;lat;lon;timestamp;P1;durP1;ratioP1;P2;durP2;ratioP2
25497;SDS011;13406;53.380;7.226;2022-12-29T03:02:14;4.33;;;2.70;;
25497;SDS011;13406;53.380;7.226;2022-12-29T03:43:37;2.37;;;1.53;;
25497;SDS011;13406;53.380;7.226;2022-12-29T03:54:18;3.93;;;2.63;;
25497;SDS011;13406;53.380;7.226;2022-12-29T03:56:50;3.90;;;1.90;;
25497;SDS011;13406;53.380;7.226;2022-12-29T04:27:51;2.30;;;1.03;;
25497;SDS011;13406;53.380;7.226;2022-12-29T05:03:53;1.67;;;1.00;;
25497;SDS011;13406;53.380;7.226;2022-12-29T05:14:03;4.40;;;1.30;;
25497;SDS011;13406;53.380;7.226;2022-12-29T05:19:04;2.80;;;1.00;;
25497;SDS011;13406;53.380;7.226;2022-12-29T05:21:29;3.30;;;1.17;;
25497;SDS011;13406;53.380;7.226;2022-12-29T05:23:55;7.10;;;1.10;;
25497;SDS011;13406;53.380;7.226;2022-12-29T05:26:21;3.77;;;1.27;;
25497;SDS011;13406;53.380;7.226;2022-12-29T05:28:46;3.27;;;1.03;;
25497;SDS011;13406;53.380;7.226;2022-12-29T05:31:12;4.47;;;1.00;;
25497;SDS011;13406;53.380;7.226;2022-12-29T05:33:50;3.97;;;1.20;;
25497;SDS011;13406;53.380;7.226;2022-12-29T05:36:15;4.20;;;1.10;;
25497;SDS011;13406;53.380;7.226;2022-12-29T05:38:41;5.07;;;1.30;;
25497;SDS011;13406;53.380;7.226;2022-12-29T05:41:06;7.23;;;1.90;;
25497;SDS011;13406;53.380;7.226;2022-12-29T05:43:31;3.87;;;1.20;;
25497;SDS011;13406;53.380;7.226;2022-12-29T05:45:56;5.40;;;1.40;;
25497;SDS011;13406;53.380;7.226;2022-12-29T05:48:22;4.00;;;1.53;;
25497;SDS011;13406;53.380;7.226;2022-12-29T05:50:48;4.77;;;1.20;;
25497;SDS011;13406;53.380;7.226;2022-12-29T05:53:13;4.50;;;1.43;;
25497;SDS011;13406;53.380;7.226;2022-12-29T05:55:38;11.73;;;1.50;;
25497;SDS011;13406;53.380;7.226;2022-12-29T05:58:04;6.30;;;1.30;;
25497;SDS011;13406;53.380;7.226;2022-12-29T06:00:29;9.30;;;1.60;;
25497;SDS011;13406;53.380;7.226;2022-12-29T06:02:54;6.13;;;1.40;;
25497;SDS011;13406;53.380;7.226;2022-12-29T06:05:20;6.10;;;1.33;;
25497;SDS011;13406;53.380;7.226;2022-12-29T06:07:45;8.30;;;1.67;;
25497;SDS011;13406;53.380;7.226;2022-12-29T06:10:10;4.70;;;1.27;;
25497;SDS011;13406;53.380;7.226;2022-12-29T06:12:35;5.03;;;1.57;;
25497;SDS011;13406;53.380;7.226;2022-12-29T06:15:01;6.60;;;2.33;;
25497;SDS011;13406;53.380;7.226;2022-12-29T06:17:26;6.50;;;1.50;;
25497;SDS011;13406;53.380;7.226;2022-12-29T06:19:51;9.43;;;1.60;;
25497;SDS011;13406;53.380;7.226;2022-12-29T06:22:17;8.80;;;2.20;;
25497;SDS011;13406;53.380;7.226;2022-12-29T06:24:42;7.10;;;2.00;;
25497;SDS011;13406;53.380;7.226;2022-12-29T06:27:07;6.30;;;1.53;;
25497;SDS011;13406;53.380;7.226;2022-12-29T06:29:32;7.60;;;2.00;;
25497;SDS011;13406;53.380;7.226;2022-12-29T06:31:58;7.00;;;1.90;;
25497;SDS011;13406;53.380;7.226;2022-12-29T06:34:24;11.33;;;1.73;;
25497;SDS011;13406;53.380;7.226;2022-12-29T06:36:49;5.83;;;1.57;;
25497;SDS011;13406;53.380;7.226;2022-12-29T06:39:14;6.57;;;2.00;;
25497;SDS011;13406;53.380;7.226;2022-12-29T06:41:40;6.37;;;1.53;;
25497;SDS011;13406;53.380;7.226;2022-12-29T06:44:05;12.40;;;2.10;;
25497;SDS011;13406;53.380;7.226;2022-12-29T06:46:30;7.33;;;1.43;;
25497;SDS011;13406;53.380;7.226;2022-12-29T06:48:56;7.03;;;1.50;;
25497;SDS011;13406;53.380;7.226;2022-12-29T06:51:21;9.80;;;2.07;;
25497;SDS011;13406;53.380;7.226;2022-12-29T06:53:46;10.93;;;1.60;;
25497;SDS011;13406;53.380;7.226;2022-12-29T06:56:11;6.47;;;1.70;;
25497;SDS011;13406;53.380;7.226;2022-12-29T06:58:37;7.20;;;1.90;;
25497;SDS011;13406;53.380;7.226;2022-12-29T07:01:02;5.80;;;1.70;;
25497;SDS011;13406;53.380;7.226;2022-12-29T07:03:27;9.13;;;1.90;;
25497;SDS011;13406;53.380;7.226;2022-12-29T07:05:53;8.83;;;1.83;;
25497;SDS011;13406;53.380;7.226;2022-12-29T07:08:19;6.47;;;1.73;;
25497;SDS011;13406;53.380;7.226;2022-12-29T07:15:54;9.13;;;2.40;;
25497;SDS011;13406;53.380;7.226;2022-12-29T07:18:20;8.80;;;1.90;;
25497;SDS011;13406;53.380;7.226;2022-12-29T07:20:45;11.33;;;2.77;;
25497;SDS011;13406;53.380;7.226;2022-12-29T07:23:11;9.40;;;2.43;;
25497;SDS011;13406;53.380;7.226;2022-12-29T07:25:36;10.20;;;2.00;;
25497;SDS011;13406;53.380;7.226;2022-12-29T07:28:05;15.70;;;2.37;;
25497;SDS011;13406;53.380;7.226;2022-12-29T07:30:31;11.10;;;1.80;;
25497;SDS011;13406;53.380;7.226;2022-12-29T07:32:59;10.30;;;2.93;;
25497;SDS011;13406;53.380;7.226;2022-12-29T07:35:24;9.70;;;1.90;;
25497;SDS011;13406;53.380;7.226;2022-12-29T07:37:50;9.27;;;2.37;;
25497;SDS011;13406;53.380;7.226;2022-12-29T07:40:15;10.97;;;2.50;;
25497;SDS011;13406;53.380;7.226;2022-12-29T07:42:42;10.17;;;2.53;;
25497;SDS011;13406;53.380;7.226;2022-12-29T07:45:07;10.73;;;2.27;;
25497;SDS011;13406;53.380;7.226;2022-12-29T07:47:34;8.50;;;2.47;;
25497;SDS011;13406;53.380;7.226;2022-12-29T07:52:43;6.50;;;1.70;;
25497;SDS011;13406;53.380;7.226;2022-12-29T07:55:09;13.43;;;2.93;;
25497;SDS011;13406;53.380;7.226;2022-12-29T07:57:37;10.30;;;2.50;;
25497;SDS011;13406;53.380;7.226;2022-12-29T08:00:04;14.37;;;3.00;;
25497;SDS011;13406;53.380;7.226;2022-12-29T08:10:19;12.17;;;3.17;;
25497;SDS011;13406;53.380;7.226;2022-12-29T08:15:47;7.57;;;2.03;;
25497;SDS011;13406;53.380;7.226;2022-12-29T08:18:12;13.67;;;3.10;;
25497;SDS011;13406;53.380;7.226;2022-12-29T08:20:38;10.90;;;2.33;;
25497;SDS011;13406;53.380;7.226;2022-12-29T08:23:03;8.37;;;2.00;;
25497;SDS011;13406;53.380;7.226;2022-12-29T08:25:28;9.67;;;2.60;;
25497;SDS011;13406;53.380;7.226;2022-12-29T08:27:54;7.83;;;2.03;;
25497;SDS011;13406;53.380;7.226;2022-12-29T08:30:19;8.40;;;2.40;;
25497;SDS011;13406;53.380;7.226;2022-12-29T08:32:46;9.40;;;2.80;;
25497;SDS011;13406;53.380;7.226;2022-12-29T08:35:12;9.20;;;1.97;;
25497;SDS011;13406;53.380;7.226;2022-12-29T08:37:37;12.27;;;2.70;;
25497;SDS011;13406;53.380;7.226;2022-12-29T08:40:03;13.83;;;2.60;;
25497;SDS011;13406;53.380;7.226;2022-12-29T08:42:29;7.97;;;2.60;;
25497;SDS011;13406;53.380;7.226;2022-12-29T08:44:56;8.47;;;2.50;;
25497;SDS011;13406;53.380;7.226;2022-12-29T08:47:22;11.07;;;2.83;;
25497;SDS011;13406;53.380;7.226;2022-12-29T08:49:47;14.70;;;2.30;;
25497;SDS011;13406;53.380;7.226;2022-12-29T08:52:12;18.27;;;2.30;;
25497;SDS011;13406;53.380;7.226;2022-12-29T08:54:38;14.47;;;2.50;;
25497;SDS011;13406;53.380;7.226;2022-12-29T08:57:03;10.93;;;2.43;;
25497;SDS011;13406;53.380;7.226;2022-12-29T08:59:29;13.30;;;2.67;;
25497;SDS011;13406;53.380;7.226;2022-12-29T09:01:54;11.83;;;2.90;;
25497;SDS011;13406;53.380;7.226;2022-12-29T09:04:20;13.27;;;3.67;;
25497;SDS011;13406;53.380;7.226;2022-12-29T09:06:45;9.37;;;2.70;;
25497;SDS011;13406;53.380;7.226;2022-12-29T09:09:11;15.23;;;2.80;;
25497;SDS011;13406;53.380;7.226;2022-12-29T09:11:37;22.07;;;3.80;;
25497;SDS011;13406;53.380;7.226;2022-12-29T09:14:02;11.17;;;2.77;;
25497;SDS011;13406;53.380;7.226;2022-12-29T09:16:27;14.30;;;3.30;;
25497;SDS011;13406;53.380;7.226;2022-12-29T09:18:53;14.60;;;4.13;;
25497;SDS011;13406;53.380;7.226;2022-12-29T09:21:18;13.23;;;2.60;;
25497;SDS011;13406;53.380;7.226;2022-12-29T09:23:43;24.33;;;4.00;;
25497;SDS011;13406;53.380;7.226;2022-12-29T09:26:09;16.50;;;3.30;;
25497;SDS011;13406;53.380;7.226;2022-12-29T09:28:34;11.10;;;2.83;;
25497;SDS011;13406;53.380;7.226;2022-12-29T09:30:59;16.83;;;3.83;;
25497;SDS011;13406;53.380;7.226;2022-12-29T09:33:24;15.13;;;3.03;;
25497;SDS011;13406;53.380;7.226;2022-12-29T09:35:50;13.90;;;3.60;;
25497;SDS011;13406;53.380;7.226;2022-12-29T09:38:16;17.93;;;3.00;;
25497;SDS011;13406;53.380;7.226;2022-12-29T09:40:43;12.80;;;2.97;;
25497;SDS011;13406;53.380;7.226;2022-12-29T09:48:20;14.20;;;3.70;;
25497;SDS011;13406;53.380;7.226;2022-12-29T09:50:49;16.30;;;4.00;;
25497;SDS011;13406;53.380;7.226;2022-12-29T09:53:25;14.83;;;3.33;;
25497;SDS011;13406;53.380;7.226;2022-12-29T09:55:54;11.00;;;2.40;;
25497;SDS011;13406;53.380;7.226;2022-12-29T09:58:44;13.07;;;3.30;;
25497;SDS011;13406;53.380;7.226;2022-12-29T10:01:06;9.30;;;2.00;;
25497;SDS011;13406;53.380;7.226;2022-12-29T10:03:51;8.63;;;2.93;;
25497;SDS011;13406;53.380;7.226;2022-12-29T10:07:24;13.80;;;2.40;;
25497;SDS011;13406;53.380;7.226;2022-12-29T10:12:00;11.87;;;2.50;;
25497;SDS011;13406;53.380;7.226;2022-12-29T10:17:16;12.43;;;2.77;;
25497;SDS011;13406;53.380;7.226;2022-12-29T10:24:56;14.30;;;2.67;;
25497;SDS011;13406;53.380;7.226;2022-12-29T10:27:22;16.57;;;3.60;;
25497;SDS011;13406;53.380;7.226;2022-12-29T10:29:48;14.93;;;3.47;;
25497;SDS011;13406;53.380;7.226;2022-12-29T10:32:18;11.93;;;2.80;;
25497;SDS011;13406;53.380;7.226;2022-12-29T10:34:49;14.47;;;2.50;;
25497;SDS011;13406;53.380;7.226;2022-12-29T10:39:51;13.87;;;3.00;;
25497;SDS011;13406;53.380;7.226;2022-12-29T10:42:22;21.60;;;3.43;;
25497;SDS011;13406;53.380;7.226;2022-12-29T10:44:50;13.10;;;2.60;;
25497;SDS011;13406;53.380;7.226;2022-12-29T10:47:20;13.83;;;2.83;;
25497;SDS011;13406;53.380;7.226;2022-12-29T10:49:47;8.70;;;2.30;;
25497;SDS011;13406;53.380;7.226;2022-12-29T10:52:14;10.10;;;2.40;;
25497;SDS011;13406;53.380;7.226;2022-12-29T10:54:57;9.87;;;2.13;;
25497;SDS011;13406;53.380;7.226;2022-12-29T10:59:48;12.50;;;3.20;;
25497;SDS011;13406;53.380;7.226;2022-12-29T11:02:26;8.53;;;2.23;;
25497;SDS011;13406;53.380;7.226;2022-12-29T11:05:06;11.17;;;2.77;;
25497;SDS011;13406;53.380;7.226;2022-12-29T11:07:35;13.37;;;2.20;;
25497;SDS011;13406;53.380;7.226;2022-12-29T11:10:17;12.63;;;3.03;;
25497;SDS011;13406;53.380;7.226;2022-12-29T11:12:54;17.20;;;2.50;;
25497;SDS011;13406;53.380;7.226;2022-12-29T11:15:19;11.20;;;3.10;;
25497;SDS011;13406;53.380;7.226;2022-12-29T11:22:54;11.63;;;2.47;;
25497;SDS011;13406;53.380;7.226;2022-12-29T11:25:19;11.87;;;2.70;;
25497;SDS011;13406;53.380;7.226;2022-12-29T11:27:57;8.00;;;2.47;;
25497;SDS011;13406;53.380;7.226;2022-12-29T11:30:30;9.73;;;2.77;;
25497;SDS011;13406;53.380;7.226;2022-12-29T11:32:56;6.80;;;2.17;;
25497;SDS011;13406;53.380;7.226;2022-12-29T11:37:57;8.57;;;2.40;;
25497;SDS011;13406;53.380;7.226;2022-12-29T11:40:23;15.53;;;2.70;;
25497;SDS011;13406;53.380;7.226;2022-12-29T11:42:49;15.93;;;3.70;;
25497;SDS011;13406;53.380;7.226;2022-12-29T11:45:19;15.30;;;3.37;;
25497;SDS011;13406;53.380;7.226;2022-12-29T11:47:47;15.10;;;3.67;;
25497;SDS011;13406;53.380;7.226;2022-12-29T11:50:22;11.33;;;2.80;;
25497;SDS011;13406;53.380;7.226;2022-12-29T11:52:49;14.50;;;2.83;;
25497;SDS011;13406;53.380;7.226;2022-12-29T11:55:18;12.03;;;2.77;;
25497;SDS011;13406;53.380;7.226;2022-12-29T11:57:45;10.23;;;2.77;;
25497;SDS011;13406;53.380;7.226;2022-12-29T12:00:14;14.33;;;3.33;;
25497;SDS011;13406;53.380;7.226;2022-12-29T12:05:33;13.23;;;2.80;;
25497;SDS011;13406;53.380;7.226;2022-12-29T12:08:11;14.27;;;3.23;;
25497;SDS011;13406;53.380;7.226;2022-12-29T12:10:44;14.90;;;4.07;;
25497;SDS011;13406;53.380;7.226;2022-12-29T12:13:20;19.50;;;4.23;;
25497;SDS011;13406;53.380;7.226;2022-12-29T12:15:49;20.13;;;4.17;;
25497;SDS011;13406;53.380;7.226;2022-12-29T12:20:50;12.07;;;3.43;;
25497;SDS011;13406;53.380;7.226;2022-12-29T12:25:50;15.43;;;3.57;;
25497;SDS011;13406;53.380;7.226;2022-12-29T12:28:23;20.27;;;5.17;;
25497;SDS011;13406;53.380;7.226;2022-12-29T12:30:50;17.17;;;3.33;;
25497;SDS011;13406;53.380;7.226;2022-12-29T12:33:19;17.63;;;3.87;;
25497;SDS011;13406;53.380;7.226;2022-12-29T12:35:52;12.13;;;3.73;;
25497;SDS011;13406;53.380;7.226;2022-12-29T12:41:13;15.23;;;3.77;;
25497;SDS011;13406;53.380;7.226;2022-12-29T12:43:45;9.93;;;2.60;;
25497;SDS011;13406;53.380;7.226;2022-12-29T12:46:26;17.43;;;3.23;;
25497;SDS011;13406;53.380;7.226;2022-12-29T12:51:44;11.43;;;4.43;;
25497;SDS011;13406;53.380;7.226;2022-12-29T13:05:02;11.70;;;3.60;;
25497;SDS011;13406;53.380;7.226;2022-12-29T13:17:53;14.43;;;3.03;;
25497;SDS011;13406;53.380;7.226;2022-12-29T13:30:22;10.67;;;2.80;;
25497;SDS011;13406;53.380;7.226;2022-12-29T13:32:55;7.80;;;2.63;;
25497;SDS011;13406;53.380;7.226;2022-12-29T13:40:36;21.40;;;6.43;;
25497;SDS011;13406;53.380;7.226;2022-12-29T13:43:04;17.83;;;4.20;;
25497;SDS011;13406;53.380;7.226;2022-12-29T13:45:30;15.53;;;4.33;;
25497;SDS011;13406;53.380;7.226;2022-12-29T13:48:05;12.57;;;3.20;;
25497;SDS011;13406;53.380;7.226;2022-12-29T13:50:33;8.63;;;3.00;;
25497;SDS011;13406;53.380;7.226;2022-12-29T13:55:30;14.33;;;2.80;;
25497;SDS011;13406;53.380;7.226;2022-12-29T14:00:23;11.20;;;2.87;;
25497;SDS011;13406;53.380;7.226;2022-12-29T14:03:01;9.33;;;1.90;;
25497;SDS011;13406;53.380;7.226;2022-12-29T14:05:34;8.03;;;2.73;;
25497;SDS011;13406;53.380;7.226;2022-12-29T14:08:04;8.47;;;2.13;;
25497;SDS011;13406;53.380;7.226;2022-12-29T14:10:47;7.17;;;2.23;;
25497;SDS011;13406;53.380;7.226;2022-12-29T14:13:16;10.37;;;2.60;;
25497;SDS011;13406;53.380;7.226;2022-12-29T14:15:43;9.37;;;2.50;;
25497;SDS011;13406;53.380;7.226;2022-12-29T14:20:51;8.20;;;2.30;;
25497;SDS011;13406;53.380;7.226;2022-12-29T14:23:28;9.90;;;2.17;;
25497;SDS011;13406;53.380;7.226;2022-12-29T14:28:24;8.57;;;1.87;;
25497;SDS011;13406;53.380;7.226;2022-12-29T14:30:50;10.37;;;2.20;;
25497;SDS011;13406;53.380;7.226;2022-12-29T14:33:16;8.50;;;1.97;;
25497;SDS011;13406;53.380;7.226;2022-12-29T14:35:43;9.30;;;2.93;;
25497;SDS011;13406;53.380;7.226;2022-12-29T14:38:16;11.43;;;2.60;;
25497;SDS011;13406;53.380;7.226;2022-12-29T14:40:42;5.60;;;1.80;;
25497;SDS011;13406;53.380;7.226;2022-12-29T14:43:14;7.13;;;2.00;;
25497;SDS011;13406;53.380;7.226;2022-12-29T14:45:43;10.00;;;2.27;;
25497;SDS011;13406;53.380;7.226;2022-12-29T14:48:21;9.13;;;2.70;;
25497;SDS011;13406;53.380;7.226;2022-12-29T14:50:46;6.77;;;1.77;;
25497;SDS011;13406;53.380;7.226;2022-12-29T14:55:56;9.90;;;2.10;;
25497;SDS011;13406;53.380;7.226;2022-12-29T15:00:48;12.53;;;3.20;;
25497;SDS011;13406;53.380;7.226;2022-12-29T15:05:45;11.87;;;2.10;;
25497;SDS011;13406;53.380;7.226;2022-12-29T15:08:16;5.20;;;1.90;;
25497;SDS011;13406;53.380;7.226;2022-12-29T15:10:43;12.30;;;2.43;;
25497;SDS011;13406;53.380;7.226;2022-12-29T15:13:14;6.23;;;2.10;;
25497;SDS011;13406;53.380;7.226;2022-12-29T15:15:40;6.83;;;2.00;;
25497;SDS011;13406;53.380;7.226;2022-12-29T15:18:24;10.97;;;2.53;;
25497;SDS011;13406;53.380;7.226;2022-12-29T15:20:51;6.23;;;2.23;;
25497;SDS011;13406;53.380;7.226;2022-12-29T15:23:18;10.67;;;2.33;;
25497;SDS011;13406;53.380;7.226;2022-12-29T15:25:57;11.53;;;2.80;;
25497;SDS011;13406;53.380;7.226;2022-12-29T15:28:23;13.13;;;2.53;;
25497;SDS011;13406;53.380;7.226;2022-12-29T15:30:52;10.80;;;2.70;;
25497;SDS011;13406;53.380;7.226;2022-12-29T15:33:21;16.37;;;3.13;;
25497;SDS011;13406;53.380;7.226;2022-12-29T15:35:50;8.07;;;2.53;;
25497;SDS011;13406;53.380;7.226;2022-12-29T15:38:25;12.03;;;2.60;;
25497;SDS011;13406;53.380;7.226;2022-12-29T15:40:52;12.53;;;2.50;;
25497;SDS011;13406;53.380;7.226;2022-12-29T15:43:23;10.03;;;2.20;;
25497;SDS011;13406;53.380;7.226;2022-12-29T15:45:54;13.53;;;3.17;;
25497;SDS011;13406;53.380;7.226;2022-12-29T15:48:21;12.03;;;2.70;;
25497;SDS011;13406;53.380;7.226;2022-12-29T15:50:46;16.67;;;3.67;;
25497;SDS011;13406;53.380;7.226;2022-12-29T15:53:14;12.03;;;3.20;;
25497;SDS011;13406;53.380;7.226;2022-12-29T15:55:43;15.10;;;3.30;;
25497;SDS011;13406;53.380;7.226;2022-12-29T15:58:23;17.57;;;3.70;;
25497;SDS011;13406;53.380;7.226;2022-12-29T16:00:50;14.20;;;3.60;;
25497;SDS011;13406;53.380;7.226;2022-12-29T16:03:15;13.67;;;2.67;;
25497;SDS011;13406;53.380;7.226;2022-12-29T16:05:41;15.83;;;2.50;;
25497;SDS011;13406;53.380;7.226;2022-12-29T16:08:54;18.50;;;3.47;;
25497;SDS011;13406;53.380;7.226;2022-12-29T16:11:20;12.30;;;3.13;;
25497;SDS011;13406;53.380;7.226;2022-12-29T16:13:47;11.17;;;2.50;;
25497;SDS011;13406;53.380;7.226;2022-12-29T16:16:18;10.83;;;2.83;;
25497;SDS011;13406;53.380;7.226;2022-12-29T16:18:44;12.37;;;2.87;;
25497;SDS011;13406;53.380;7.226;2022-12-29T16:21:20;15.00;;;3.50;;
25497;SDS011;13406;53.380;7.226;2022-12-29T16:23:47;10.67;;;2.47;;
25497;SDS011;13406;53.380;7.226;2022-12-29T16:26:17;13.33;;;2.63;;
25497;SDS011;13406;53.380;7.226;2022-12-29T16:28:43;10.23;;;2.60;;
25497;SDS011;13406;53.380;7.226;2022-12-29T16:31:20;9.20;;;2.60;;
25497;SDS011;13406;53.380;7.226;2022-12-29T16:33:47;11.57;;;2.93;;
25497;SDS011;13406;53.380;7.226;2022-12-29T16:38:50;13.00;;;2.73;;
25497;SDS011;13406;53.380;7.226;2022-12-29T16:41:31;9.80;;;1.97;;
25497;SDS011;13406;53.380;7.226;2022-12-29T16:44:12;12.43;;;2.50;;
25497;SDS011;13406;53.380;7.226;2022-12-29T16:46:44;8.60;;;2.70;;
25497;SDS011;13406;53.380;7.226;2022-12-29T16:49:20;13.17;;;2.77;;
25497;SDS011;13406;53.380;7.226;2022-12-29T16:51:45;13.43;;;2.73;;
25497;SDS011;13406;53.380;7.226;2022-12-29T16:54:17;11.50;;;2.90;;
25497;SDS011;13406;53.380;7.226;2022-12-29T16:56:44;12.97;;;3.07;;
25497;SDS011;13406;53.380;7.226;2022-12-29T17:01:43;12.60;;;2.90;;
25497;SDS011;13406;53.380;7.226;2022-12-29T17:04:10;12.40;;;2.73;;
25497;SDS011;13406;53.380;7.226;2022-12-29T17:06:36;7.40;;;2.10;;
25497;SDS011;13406;53.380;7.226;2022-12-29T17:09:01;7.60;;;2.27;;
25497;SDS011;13406;53.380;7.226;2022-12-29T17:11:31;10.97;;;2.53;;
25497;SDS011;13406;53.380;7.226;2022-12-29T17:14:19;12.20;;;3.13;;
25497;SDS011;13406;53.380;7.226;2022-12-29T17:16:46;9.63;;;2.73;;
25497;SDS011;13406;53.380;7.226;2022-12-29T17:19:18;9.97;;;2.77;;
25497;SDS011;13406;53.380;7.226;2022-12-29T17:21:44;6.27;;;1.97;;
25497;SDS011;13406;53.380;7.226;2022-12-29T17:24:16;7.53;;;2.00;;
25497;SDS011;13406;53.380;7.226;2022-12-29T17:26:42;10.07;;;2.10;;
25497;SDS011;13406;53.380;7.226;2022-12-29T17:29:10;10.50;;;1.90;;
25497;SDS011;13406;53.380;7.226;2022-12-29T17:31:41;5.93;;;1.47;;
25497;SDS011;13406;53.380;7.226;2022-12-29T17:34:06;7.23;;;1.70;;
25497;SDS011;13406;53.380;7.226;2022-12-29T17:36:32;6.30;;;1.60;;
25497;SDS011;13406;53.380;7.226;2022-12-29T17:38:57;4.43;;;1.50;;
25497;SDS011;13406;53.380;7.226;2022-12-29T17:41:23;3.63;;;1.30;;
25497;SDS011;13406;53.380;7.226;2022-12-29T17:43:48;4.90;;;1.23;;
25497;SDS011;13406;53.380;7.226;2022-12-29T17:46:13;3.17;;;1.50;;
25497;SDS011;13406;53.380;7.226;2022-12-29T17:48:38;5.87;;;2.40;;
25497;SDS011;13406;53.380;7.226;2022-12-29T17:51:04;3.97;;;1.50;;
25497;SDS011;13406;53.380;7.226;2022-12-29T17:53:29;2.73;;;0.93;;
25497;SDS011;13406;53.380;7.226;2022-12-29T17:55:54;2.00;;;1.33;;
25497;SDS011;13406;53.380;7.226;2022-12-29T17:58:21;3.13;;;1.30;;
25497;SDS011;13406;53.380;7.226;2022-12-29T18:00:50;2.00;;;0.90;;
25497;SDS011;13406;53.380;7.226;2022-12-29T18:03:17;5.10;;;1.50;;
25497;SDS011;13406;53.380;7.226;2022-12-29T18:05:43;4.33;;;1.20;;
25497;SDS011;13406;53.380;7.226;2022-12-29T18:08:09;3.30;;;1.20;;
25497;SDS011;13406;53.380;7.226;2022-12-29T18:10:36;3.40;;;1.43;;
25497;SDS011;13406;53.380;7.226;2022-12-29T18:13:01;5.60;;;1.73;;
25497;SDS011;13406;53.380;7.226;2022-12-29T18:15:30;5.37;;;2.00;;
25497;SDS011;13406;53.380;7.226;2022-12-29T18:18:11;5.70;;;1.90;;
25497;SDS011;13406;53.380;7.226;2022-12-29T18:20:37;3.83;;;1.67;;
25497;SDS011;13406;53.380;7.226;2022-12-29T18:23:02;4.33;;;2.30;;
25497;SDS011;13406;53.380;7.226;2022-12-29T18:25:48;12.77;;;2.13;;
25497;SDS011;13406;53.380;7.226;2022-12-29T18:28:15;5.17;;;2.10;;
25497;SDS011;13406;53.380;7.226;2022-12-29T18:30:40;8.37;;;2.60;;
25497;SDS011;13406;53.380;7.226;2022-12-29T18:33:08;7.23;;;2.20;;
25497;SDS011;13406;53.380;7.226;2022-12-29T18:35:38;9.63;;;1.90;;
25497;SDS011;13406;53.380;7.226;2022-12-29T18:38:03;9.10;;;2.20;;
25497;SDS011;13406;53.380;7.226;2022-12-29T18:40:30;10.30;;;2.83;;
25497;SDS011;13406;53.380;7.226;2022-12-29T18:42:55;10.30;;;2.30;;
25497;SDS011;13406;53.380;7.226;2022-12-29T18:45:21;5.70;;;2.20;;
25497;SDS011;13406;53.380;7.226;2022-12-29T18:47:47;16.03;;;4.80;;
25497;SDS011;13406;53.380;7.226;2022-12-29T18:50:12;12.20;;;3.77;;
25497;SDS011;13406;53.380;7.226;2022-12-29T18:52:38;14.93;;;3.43;;
25497;SDS011;13406;53.380;7.226;2022-12-29T18:55:05;9.23;;;4.20;;
25497;SDS011;13406;53.380;7.226;2022-12-29T18:57:34;12.97;;;5.20;;
25497;SDS011;13406;53.380;7.226;2022-12-29T18:59:59;9.87;;;3.33;;
25497;SDS011;13406;53.380;7.226;2022-12-29T19:02:25;11.13;;;3.27;;
25497;SDS011;13406;53.380;7.226;2022-12-29T19:04:52;10.30;;;3.40;;
25497;SDS011;13406;53.380;7.226;2022-12-29T19:07:17;9.50;;;2.80;;
25497;SDS011;13406;53.380;7.226;2022-12-29T19:09:43;11.50;;;3.20;;
25497;SDS011;13406;53.380;7.226;2022-12-29T19:12:09;11.67;;;3.03;;
25497;SDS011;13406;53.380;7.226;2022-12-29T19:14:37;8.77;;;2.57;;
25497;SDS011;13406;53.380;7.226;2022-12-29T19:17:03;11.13;;;3.57;;
25497;SDS011;13406;53.380;7.226;2022-12-29T19:19:28;13.20;;;3.07;;
25497;SDS011;13406;53.380;7.226;2022-12-29T19:21:53;15.00;;;2.90;;
25497;SDS011;13406;53.380;7.226;2022-12-29T19:24:22;11.70;;;3.17;;
25497;SDS011;13406;53.380;7.226;2022-12-29T19:26:47;18.30;;;3.40;;
25497;SDS011;13406;53.380;7.226;2022-12-29T19:29:13;14.53;;;3.47;;
25497;SDS011;13406;53.380;7.226;2022-12-29T19:31:42;10.70;;;2.50;;
25497;SDS011;13406;53.380;7.226;2022-12-29T19:34:08;12.57;;;2.80;;
25497;SDS011;13406;53.380;7.226;2022-12-29T19:36:34;16.87;;;2.90;;
25497;SDS011;13406;53.380;7.226;2022-12-29T19:38:59;14.20;;;2.93;;
25497;SDS011;13406;53.380;7.226;2022-12-29T19:41:24;15.73;;;3.03;;
25497;SDS011;13406;53.380;7.226;2022-12-29T19:43:50;15.47;;;3.90;;
25497;SDS011;13406;53.380;7.226;2022-12-29T19:46:16;12.40;;;3.90;;
25497;SDS011;13406;53.380;7.226;2022-12-29T19:48:41;15.03;;;3.33;;
25497;SDS011;13406;53.380;7.226;2022-12-29T19:51:11;14.50;;;3.10;;
25497;SDS011;13406;53.380;7.226;2022-12-29T19:53:37;16.10;;;4.40;;
25497;SDS011;13406;53.380;7.226;2022-12-29T19:56:03;13.83;;;3.10;;
25497;SDS011;13406;53.380;7.226;2022-12-29T19:58:29;14.67;;;3.80;;
25497;SDS011;13406;53.380;7.226;2022-12-29T20:00:54;15.00;;;3.40;;
25497;SDS011;13406;53.380;7.226;2022-12-29T20:03:19;14.53;;;3.57;;
25497;SDS011;13406;53.380;7.226;2022-12-29T20:05:48;19.30;;;4.50;;
25497;SDS011;13406;53.380;7.226;2022-12-29T20:08:14;13.60;;;4.13;;
25497;SDS011;13406;53.380;7.226;2022-12-29T20:10:40;18.03;;;4.13;;
25497;SDS011;13406;53.380;7.226;2022-12-29T20:13:05;17.20;;;3.43;;
25497;SDS011;13406;53.380;7.226;2022-12-29T20:15:30;13.37;;;3.57;;
25497;SDS011;13406;53.380;7.226;2022-12-29T20:17:56;18.93;;;4.73;;
25497;SDS011;13406;53.380;7.226;2022-12-29T20:20:21;15.90;;;3.60;;
25497;SDS011;13406;53.380;7.226;2022-12-29T20:22:47;15.47;;;3.50;;
25497;SDS011;13406;53.380;7.226;2022-12-29T20:25:12;15.00;;;2.97;;
25497;SDS011;13406;53.380;7.226;2022-12-29T20:27:37;16.97;;;4.00;;
25497;SDS011;13406;53.380;7.226;2022-12-29T20:30:03;12.83;;;3.50;;
25497;SDS011;13406;53.380;7.226;2022-12-29T20:32:28;21.37;;;3.97;;
25497;SDS011;13406;53.380;7.226;2022-12-29T20:34:53;18.47;;;4.23;;
25497;SDS011;13406;53.380;7.226;2022-12-29T20:37:19;17.27;;;3.37;;
25497;SDS011;13406;53.380;7.226;2022-12-29T20:39:45;18.40;;;3.70;;
25497;SDS011;13406;53.380;7.226;2022-12-29T20:42:10;14.80;;;3.33;;
25497;SDS011;13406;53.380;7.226;2022-12-29T20:44:37;15.73;;;3.87;;
25497;SDS011;13406;53.380;7.226;2022-12-29T20:47:02;17.33;;;4.27;;
25497;SDS011;13406;53.380;7.226;2022-12-29T20:49:29;20.63;;;5.60;;
25497;SDS011;13406;53.380;7.226;2022-12-29T20:51:55;15.90;;;3.57;;
25497;SDS011;13406;53.380;7.226;2022-12-29T20:54:20;14.73;;;4.23;;
25497;SDS011;13406;53.380;7.226;2022-12-29T20:56:46;12.87;;;3.20;;
25497;SDS011;13406;53.380;7.226;2022-12-29T20:59:12;12.20;;;3.20;;
25497;SDS011;13406;53.380;7.226;2022-12-29T21:01:37;15.40;;;3.50;;
25497;SDS011;13406;53.380;7.226;2022-12-29T21:04:03;18.83;;;3.90;;
25497;SDS011;13406;53.380;7.226;2022-12-29T21:06:29;18.30;;;4.10;;
25497;SDS011;13406;53.380;7.226;2022-12-29T21:08:55;14.20;;;3.23;;
25497;SDS011;13406;53.380;7.226;2022-12-29T21:11:20;18.00;;;4.10;;
25497;SDS011;13406;53.380;7.226;2022-12-29T21:13:46;11.43;;;3.50;;
25497;SDS011;13406;53.380;7.226;2022-12-29T21:16:12;14.67;;;3.20;;
25497;SDS011;13406;53.380;7.226;2022-12-29T21:18:38;16.07;;;3.60;;
25497;SDS011;13406;53.380;7.226;2022-12-29T21:21:07;22.73;;;3.97;;
25497;SDS011;13406;53.380;7.226;2022-12-29T21:23:33;15.57;;;4.47;;
25497;SDS011;13406;53.380;7.226;2022-12-29T21:26:01;14.93;;;4.10;;
25497;SDS011;13406;53.380;7.226;2022-12-29T21:28:30;13.63;;;4.03;;
25497;SDS011;13406;53.380;7.226;2022-12-29T21:30:55;17.33;;;3.57;;
25497;SDS011;13406;53.380;7.226;2022-12-29T21:33:20;13.40;;;3.73;;
25497;SDS011;13406;53.380;7.226;2022-12-29T21:35:47;18.67;;;3.97;;
25497;SDS011;13406;53.380;7.226;2022-12-29T21:38:12;17.93;;;3.37;;
25497;SDS011;13406;53.380;7.226;2022-12-29T21:40:38;16.57;;;3.60;;
25497;SDS011;13406;53.380;7.226;2022-12-29T21:43:04;21.90;;;3.50;;
25497;SDS011;13406;53.380;7.226;2022-12-29T21:45:29;24.40;;;4.10;;